sensor_id;sensor_type;location;lat;lon;timestamp;P1;durP1;ratioP1;P2;durP2;ratioP2
40959;SDS011;27842;52.272;8.052;2022-07-29T00:02:06;6.60;;;1.88;;
40959;SDS011;27842;52.272;8.052;2022-07-29T00:04:34;4.18;;;1.50;;
40959;SDS011;27842;52.272;8.052;2022-07-29T00:07:00;9.50;;;2.77;;
40959;SDS011;27842;52.272;8.052;2022-07-29T00:09:25;5.03;;;1.50;;
40959;SDS011;27842;52.272;8.052;2022-07-29T00:11:51;7.07;;;1.73;;
40959;SDS011;27842;52.272;8.052;2022-07-29T00:14:17;7.60;;;1.75;;
40959;SDS011;27842;52.272;8.052;2022-07-29T00:16:42;6.82;;;1.60;;
40959;SDS011;27842;52.272;8.052;2022-07-29T00:19:29;6.20;;;1.40;;
40959;SDS011;27842;52.272;8.052;2022-07-29T00:21:55;4.45;;;1.48;;
40959;SDS011;27842;52.272;8.052;2022-07-29T00:24:20;7.32;;;1.70;;
40959;SDS011;27842;52.272;8.052;2022-07-29T00:26:46;4.47;;;1.70;;
40959;SDS011;27842;52.272;8.052;2022-07-29T00:29:11;7.03;;;1.95;;
40959;SDS011;27842;52.272;8.052;2022-07-29T00:31:37;9.65;;;1.95;;
40959;SDS011;27842;52.272;8.052;2022-07-29T00:34:03;5.47;;;1.70;;
40959;SDS011;27842;52.272;8.052;2022-07-29T00:36:28;8.40;;;1.77;;
40959;SDS011;27842;52.272;8.052;2022-07-29T00:38:54;5.50;;;1.75;;
40959;SDS011;27842;52.272;8.052;2022-07-29T00:41:19;5.53;;;1.60;;
40959;SDS011;27842;52.272;8.052;2022-07-29T00:43:45;7.47;;;2.00;;
40959;SDS011;27842;52.272;8.052;2022-07-29T00:46:11;4.57;;;1.70;;
40959;SDS011;27842;52.272;8.052;2022-07-29T00:48:37;5.40;;;1.58;;
40959;SDS011;27842;52.272;8.052;2022-07-29T00:51:03;8.30;;;1.48;;
40959;SDS011;27842;52.272;8.052;2022-07-29T00:53:30;5.68;;;1.48;;
40959;SDS011;27842;52.272;8.052;2022-07-29T00:55:57;5.22;;;1.50;;
40959;SDS011;27842;52.272;8.052;2022-07-29T00:58:23;10.20;;;1.70;;
40959;SDS011;27842;52.272;8.052;2022-07-29T01:00:49;5.57;;;1.48;;
40959;SDS011;27842;52.272;8.052;2022-07-29T01:03:15;9.70;;;1.70;;
40959;SDS011;27842;52.272;8.052;2022-07-29T01:05:41;4.28;;;1.52;;
40959;SDS011;27842;52.272;8.052;2022-07-29T01:08:08;4.50;;;1.50;;
40959;SDS011;27842;52.272;8.052;2022-07-29T01:10:36;7.95;;;1.50;;
40959;SDS011;27842;52.272;8.052;2022-07-29T01:13:04;6.35;;;1.60;;
40959;SDS011;27842;52.272;8.052;2022-07-29T01:15:31;6.35;;;1.60;;
40959;SDS011;27842;52.272;8.052;2022-07-29T01:18:12;6.03;;;1.50;;
40959;SDS011;27842;52.272;8.052;2022-07-29T01:34:45;8.02;;;1.70;;
40959;SDS011;27842;52.272;8.052;2022-07-29T01:37:22;3.33;;;1.40;;
40959;SDS011;27842;52.272;8.052;2022-07-29T01:39:52;4.53;;;1.25;;
40959;SDS011;27842;52.272;8.052;2022-07-29T01:47:25;7.53;;;1.70;;
40959;SDS011;27842;52.272;8.052;2022-07-29T01:49:56;4.05;;;1.35;;
40959;SDS011;27842;52.272;8.052;2022-07-29T01:52:31;6.15;;;1.73;;
40959;SDS011;27842;52.272;8.052;2022-07-29T01:55:04;4.78;;;1.67;;
40959;SDS011;27842;52.272;8.052;2022-07-29T01:57:34;3.88;;;1.42;;
40959;SDS011;27842;52.272;8.052;2022-07-29T02:00:03;5.72;;;1.60;;
40959;SDS011;27842;52.272;8.052;2022-07-29T02:02:30;9.45;;;1.60;;
40959;SDS011;27842;52.272;8.052;2022-07-29T02:04:58;4.28;;;1.60;;
40959;SDS011;27842;52.272;8.052;2022-07-29T02:07:27;6.28;;;1.83;;
40959;SDS011;27842;52.272;8.052;2022-07-29T02:12:21;7.25;;;2.03;;
40959;SDS011;27842;52.272;8.052;2022-07-29T02:14:49;10.05;;;1.70;;
40959;SDS011;27842;52.272;8.052;2022-07-29T02:17:27;8.07;;;1.60;;
40959;SDS011;27842;52.272;8.052;2022-07-29T02:19:59;4.65;;;1.60;;
40959;SDS011;27842;52.272;8.052;2022-07-29T02:22:26;9.07;;;1.80;;
40959;SDS011;27842;52.272;8.052;2022-07-29T02:24:55;11.30;;;1.60;;
40959;SDS011;27842;52.272;8.052;2022-07-29T02:27:22;5.57;;;1.45;;
40959;SDS011;27842;52.272;8.052;2022-07-29T02:29:48;7.35;;;1.58;;
40959;SDS011;27842;52.272;8.052;2022-07-29T02:32:15;5.93;;;1.58;;
40959;SDS011;27842;52.272;8.052;2022-07-29T02:34:42;8.98;;;2.70;;
40959;SDS011;27842;52.272;8.052;2022-07-29T02:37:10;9.25;;;2.00;;
40959;SDS011;27842;52.272;8.052;2022-07-29T02:39:36;7.82;;;1.60;;
40959;SDS011;27842;52.272;8.052;2022-07-29T02:42:05;5.68;;;1.77;;
40959;SDS011;27842;52.272;8.052;2022-07-29T02:44:34;9.30;;;2.10;;
40959;SDS011;27842;52.272;8.052;2022-07-29T02:52:03;7.97;;;1.80;;
40959;SDS011;27842;52.272;8.052;2022-07-29T02:54:46;7.25;;;1.75;;
40959;SDS011;27842;52.272;8.052;2022-07-29T02:58:02;6.07;;;1.58;;
40959;SDS011;27842;52.272;8.052;2022-07-29T03:00:11;6.50;;;1.50;;
40959;SDS011;27842;52.272;8.052;2022-07-29T03:02:39;5.65;;;1.88;;
40959;SDS011;27842;52.272;8.052;2022-07-29T03:05:09;5.10;;;1.55;;
40959;SDS011;27842;52.272;8.052;2022-07-29T03:07:40;6.03;;;1.70;;
40959;SDS011;27842;52.272;8.052;2022-07-29T03:10:08;10.93;;;2.00;;
40959;SDS011;27842;52.272;8.052;2022-07-29T03:12:33;6.85;;;1.70;;
40959;SDS011;27842;52.272;8.052;2022-07-29T03:15:00;5.65;;;1.50;;
40959;SDS011;27842;52.272;8.052;2022-07-29T03:17:27;7.78;;;1.60;;
40959;SDS011;27842;52.272;8.052;2022-07-29T03:19:52;5.35;;;1.40;;
40959;SDS011;27842;52.272;8.052;2022-07-29T03:22:19;7.38;;;1.95;;
40959;SDS011;27842;52.272;8.052;2022-07-29T03:24:45;6.05;;;1.55;;
40959;SDS011;27842;52.272;8.052;2022-07-29T03:27:11;6.10;;;1.60;;
40959;SDS011;27842;52.272;8.052;2022-07-29T03:29:36;5.95;;;1.55;;
40959;SDS011;27842;52.272;8.052;2022-07-29T03:32:03;8.73;;;1.92;;
40959;SDS011;27842;52.272;8.052;2022-07-29T03:34:29;8.93;;;1.60;;
40959;SDS011;27842;52.272;8.052;2022-07-29T03:36:55;7.30;;;1.90;;
40959;SDS011;27842;52.272;8.052;2022-07-29T03:39:21;4.40;;;1.30;;
40959;SDS011;27842;52.272;8.052;2022-07-29T03:41:52;6.95;;;1.48;;
40959;SDS011;27842;52.272;8.052;2022-07-29T03:44:21;4.72;;;1.42;;
40959;SDS011;27842;52.272;8.052;2022-07-29T03:46:50;6.35;;;1.60;;
40959;SDS011;27842;52.272;8.052;2022-07-29T03:49:16;5.80;;;1.73;;
40959;SDS011;27842;52.272;8.052;2022-07-29T03:51:44;7.57;;;1.60;;
40959;SDS011;27842;52.272;8.052;2022-07-29T03:54:11;9.50;;;1.65;;
40959;SDS011;27842;52.272;8.052;2022-07-29T03:56:42;6.20;;;1.48;;
40959;SDS011;27842;52.272;8.052;2022-07-29T03:59:12;5.97;;;1.60;;
40959;SDS011;27842;52.272;8.052;2022-07-29T04:01:40;6.18;;;1.67;;
40959;SDS011;27842;52.272;8.052;2022-07-29T04:04:06;6.88;;;1.83;;
40959;SDS011;27842;52.272;8.052;2022-07-29T04:06:39;7.15;;;1.73;;
40959;SDS011;27842;52.272;8.052;2022-07-29T04:09:06;7.43;;;2.17;;
40959;SDS011;27842;52.272;8.052;2022-07-29T04:11:32;4.57;;;1.60;;
40959;SDS011;27842;52.272;8.052;2022-07-29T04:13:58;8.77;;;1.70;;
40959;SDS011;27842;52.272;8.052;2022-07-29T04:16:23;8.18;;;1.75;;
40959;SDS011;27842;52.272;8.052;2022-07-29T04:18:49;9.55;;;2.00;;
40959;SDS011;27842;52.272;8.052;2022-07-29T04:21:14;2.65;;;1.48;;
40959;SDS011;27842;52.272;8.052;2022-07-29T04:23:40;6.22;;;1.45;;
40959;SDS011;27842;52.272;8.052;2022-07-29T04:26:06;9.55;;;1.70;;
40959;SDS011;27842;52.272;8.052;2022-07-29T04:28:34;5.53;;;1.38;;
40959;SDS011;27842;52.272;8.052;2022-07-29T04:31:00;3.25;;;1.50;;
40959;SDS011;27842;52.272;8.052;2022-07-29T04:33:25;8.40;;;1.65;;
40959;SDS011;27842;52.272;8.052;2022-07-29T04:35:51;5.03;;;1.65;;
40959;SDS011;27842;52.272;8.052;2022-07-29T04:38:16;6.78;;;1.55;;
40959;SDS011;27842;52.272;8.052;2022-07-29T04:40:42;4.72;;;1.60;;
40959;SDS011;27842;52.272;8.052;2022-07-29T04:43:08;6.80;;;1.60;;
40959;SDS011;27842;52.272;8.052;2022-07-29T04:45:33;7.50;;;1.70;;
40959;SDS011;27842;52.272;8.052;2022-07-29T04:47:59;5.13;;;1.45;;
40959;SDS011;27842;52.272;8.052;2022-07-29T04:50:25;4.72;;;1.80;;
40959;SDS011;27842;52.272;8.052;2022-07-29T04:52:51;5.68;;;1.52;;
40959;SDS011;27842;52.272;8.052;2022-07-29T04:55:16;6.90;;;1.55;;
40959;SDS011;27842;52.272;8.052;2022-07-29T04:57:42;8.70;;;1.75;;
40959;SDS011;27842;52.272;8.052;2022-07-29T05:00:08;10.02;;;2.42;;
40959;SDS011;27842;52.272;8.052;2022-07-29T05:02:34;6.80;;;1.80;;
40959;SDS011;27842;52.272;8.052;2022-07-29T05:04:59;8.90;;;1.95;;
40959;SDS011;27842;52.272;8.052;2022-07-29T05:07:25;7.53;;;1.73;;
40959;SDS011;27842;52.272;8.052;2022-07-29T05:09:50;8.40;;;1.77;;
40959;SDS011;27842;52.272;8.052;2022-07-29T05:12:17;8.95;;;1.63;;
40959;SDS011;27842;52.272;8.052;2022-07-29T05:14:43;8.80;;;1.90;;
40959;SDS011;27842;52.272;8.052;2022-07-29T05:17:08;6.43;;;1.70;;
40959;SDS011;27842;52.272;8.052;2022-07-29T05:19:46;8.20;;;2.10;;
40959;SDS011;27842;52.272;8.052;2022-07-29T05:22:11;7.43;;;1.83;;
40959;SDS011;27842;52.272;8.052;2022-07-29T05:24:37;6.45;;;1.50;;
40959;SDS011;27842;52.272;8.052;2022-07-29T05:27:03;4.25;;;1.50;;
40959;SDS011;27842;52.272;8.052;2022-07-29T05:29:28;6.40;;;1.75;;
40959;SDS011;27842;52.272;8.052;2022-07-29T05:31:54;4.38;;;1.60;;
40959;SDS011;27842;52.272;8.052;2022-07-29T05:34:19;8.05;;;1.75;;
40959;SDS011;27842;52.272;8.052;2022-07-29T05:36:45;4.95;;;1.40;;
40959;SDS011;27842;52.272;8.052;2022-07-29T05:39:11;8.55;;;1.77;;
40959;SDS011;27842;52.272;8.052;2022-07-29T05:41:37;7.65;;;2.22;;
40959;SDS011;27842;52.272;8.052;2022-07-29T05:44:03;7.97;;;1.90;;
40959;SDS011;27842;52.272;8.052;2022-07-29T05:46:29;10.32;;;1.98;;
40959;SDS011;27842;52.272;8.052;2022-07-29T05:48:54;11.57;;;1.90;;
40959;SDS011;27842;52.272;8.052;2022-07-29T05:51:20;9.73;;;2.00;;
40959;SDS011;27842;52.272;8.052;2022-07-29T05:53:45;5.45;;;1.80;;
40959;SDS011;27842;52.272;8.052;2022-07-29T05:56:11;6.07;;;1.75;;
40959;SDS011;27842;52.272;8.052;2022-07-29T05:58:36;8.15;;;1.80;;
40959;SDS011;27842;52.272;8.052;2022-07-29T06:01:02;8.10;;;1.73;;
40959;SDS011;27842;52.272;8.052;2022-07-29T06:03:28;6.75;;;1.90;;
40959;SDS011;27842;52.272;8.052;2022-07-29T06:05:54;13.18;;;2.30;;
40959;SDS011;27842;52.272;8.052;2022-07-29T06:08:19;7.43;;;1.70;;
40959;SDS011;27842;52.272;8.052;2022-07-29T06:10:45;9.13;;;1.90;;
40959;SDS011;27842;52.272;8.052;2022-07-29T06:13:11;6.15;;;1.73;;
40959;SDS011;27842;52.272;8.052;2022-07-29T06:15:44;7.10;;;1.63;;
40959;SDS011;27842;52.272;8.052;2022-07-29T06:18:18;6.95;;;1.80;;
40959;SDS011;27842;52.272;8.052;2022-07-29T06:20:49;7.47;;;1.70;;
40959;SDS011;27842;52.272;8.052;2022-07-29T06:23:18;8.07;;;1.70;;
40959;SDS011;27842;52.272;8.052;2022-07-29T06:25:47;7.15;;;1.85;;
40959;SDS011;27842;52.272;8.052;2022-07-29T06:28:13;9.52;;;2.08;;
40959;SDS011;27842;52.272;8.052;2022-07-29T06:30:40;7.38;;;1.90;;
40959;SDS011;27842;52.272;8.052;2022-07-29T06:33:06;6.60;;;2.00;;
40959;SDS011;27842;52.272;8.052;2022-07-29T06:35:35;8.35;;;1.88;;
40959;SDS011;27842;52.272;8.052;2022-07-29T06:38:02;6.25;;;1.80;;
40959;SDS011;27842;52.272;8.052;2022-07-29T06:40:32;6.82;;;1.77;;
40959;SDS011;27842;52.272;8.052;2022-07-29T06:43:16;6.93;;;2.33;;
40959;SDS011;27842;52.272;8.052;2022-07-29T06:45:42;8.68;;;2.38;;
40959;SDS011;27842;52.272;8.052;2022-07-29T06:48:09;13.68;;;2.47;;
40959;SDS011;27842;52.272;8.052;2022-07-29T06:50:37;12.25;;;2.25;;
40959;SDS011;27842;52.272;8.052;2022-07-29T06:53:04;9.43;;;2.03;;
40959;SDS011;27842;52.272;8.052;2022-07-29T06:55:30;8.85;;;1.80;;
40959;SDS011;27842;52.272;8.052;2022-07-29T06:57:56;7.25;;;1.50;;
40959;SDS011;27842;52.272;8.052;2022-07-29T07:00:33;7.50;;;1.83;;
40959;SDS011;27842;52.272;8.052;2022-07-29T07:03:02;6.88;;;1.90;;
40959;SDS011;27842;52.272;8.052;2022-07-29T07:05:28;7.30;;;1.73;;
40959;SDS011;27842;52.272;8.052;2022-07-29T07:07:53;4.70;;;1.80;;
40959;SDS011;27842;52.272;8.052;2022-07-29T07:10:34;10.90;;;1.95;;
40959;SDS011;27842;52.272;8.052;2022-07-29T07:13:00;9.18;;;2.10;;
40959;SDS011;27842;52.272;8.052;2022-07-29T07:15:26;8.38;;;1.90;;
40959;SDS011;27842;52.272;8.052;2022-07-29T07:17:52;11.30;;;2.10;;
40959;SDS011;27842;52.272;8.052;2022-07-29T07:20:18;6.07;;;1.80;;
40959;SDS011;27842;52.272;8.052;2022-07-29T07:22:51;8.43;;;1.52;;
40959;SDS011;27842;52.272;8.052;2022-07-29T07:25:16;8.68;;;1.70;;
40959;SDS011;27842;52.272;8.052;2022-07-29T07:27:43;8.10;;;1.52;;
40959;SDS011;27842;52.272;8.052;2022-07-29T07:30:09;8.70;;;1.60;;
40959;SDS011;27842;52.272;8.052;2022-07-29T07:32:35;7.70;;;1.73;;
40959;SDS011;27842;52.272;8.052;2022-07-29T07:35:02;8.90;;;1.88;;
40959;SDS011;27842;52.272;8.052;2022-07-29T07:37:29;5.63;;;1.65;;
40959;SDS011;27842;52.272;8.052;2022-07-29T07:39:55;5.93;;;1.80;;
40959;SDS011;27842;52.272;8.052;2022-07-29T07:42:33;7.50;;;1.92;;
40959;SDS011;27842;52.272;8.052;2022-07-29T07:44:59;8.02;;;1.70;;
40959;SDS011;27842;52.272;8.052;2022-07-29T07:47:25;8.55;;;2.00;;
40959;SDS011;27842;52.272;8.052;2022-07-29T07:49:51;8.52;;;1.67;;
40959;SDS011;27842;52.272;8.052;2022-07-29T07:52:18;7.13;;;1.70;;
40959;SDS011;27842;52.272;8.052;2022-07-29T07:54:45;9.27;;;1.80;;
40959;SDS011;27842;52.272;8.052;2022-07-29T07:57:11;5.88;;;1.90;;
40959;SDS011;27842;52.272;8.052;2022-07-29T07:59:38;8.90;;;1.70;;
40959;SDS011;27842;52.272;8.052;2022-07-29T08:02:06;7.40;;;1.95;;
40959;SDS011;27842;52.272;8.052;2022-07-29T08:04:40;10.93;;;2.78;;
40959;SDS011;27842;52.272;8.052;2022-07-29T08:07:06;9.65;;;1.83;;
40959;SDS011;27842;52.272;8.052;2022-07-29T08:10:04;7.10;;;1.60;;
40959;SDS011;27842;52.272;8.052;2022-07-29T08:12:34;8.60;;;2.05;;
40959;SDS011;27842;52.272;8.052;2022-07-29T08:15:03;6.93;;;1.90;;
40959;SDS011;27842;52.272;8.052;2022-07-29T08:17:34;8.95;;;1.95;;
40959;SDS011;27842;52.272;8.052;2022-07-29T08:19:59;8.25;;;2.22;;
40959;SDS011;27842;52.272;8.052;2022-07-29T08:22:32;7.05;;;1.80;;
40959;SDS011;27842;52.272;8.052;2022-07-29T08:28:06;7.13;;;1.90;;
40959;SDS011;27842;52.272;8.052;2022-07-29T08:30:57;7.15;;;1.80;;
40959;SDS011;27842;52.272;8.052;2022-07-29T08:33:23;6.93;;;1.88;;
40959;SDS011;27842;52.272;8.052;2022-07-29T08:35:49;4.65;;;1.80;;
40959;SDS011;27842;52.272;8.052;2022-07-29T08:38:19;10.73;;;2.03;;
40959;SDS011;27842;52.272;8.052;2022-07-29T08:40:45;6.30;;;1.63;;
40959;SDS011;27842;52.272;8.052;2022-07-29T08:43:31;6.93;;;1.65;;
40959;SDS011;27842;52.272;8.052;2022-07-29T08:46:00;6.68;;;1.67;;
40959;SDS011;27842;52.272;8.052;2022-07-29T08:48:25;7.97;;;1.75;;
40959;SDS011;27842;52.272;8.052;2022-07-29T08:54:08;6.28;;;1.75;;
40959;SDS011;27842;52.272;8.052;2022-07-29T08:56:36;8.68;;;1.58;;
40959;SDS011;27842;52.272;8.052;2022-07-29T08:59:30;5.32;;;2.03;;
40959;SDS011;27842;52.272;8.052;2022-07-29T09:02:01;8.23;;;2.05;;
40959;SDS011;27842;52.272;8.052;2022-07-29T09:05:03;6.78;;;1.90;;
40959;SDS011;27842;52.272;8.052;2022-07-29T09:07:30;6.22;;;1.88;;
40959;SDS011;27842;52.272;8.052;2022-07-29T09:10:08;7.93;;;2.13;;
40959;SDS011;27842;52.272;8.052;2022-07-29T09:12:40;7.70;;;1.85;;
40959;SDS011;27842;52.272;8.052;2022-07-29T09:15:39;8.52;;;1.83;;
40959;SDS011;27842;52.272;8.052;2022-07-29T09:18:04;6.55;;;1.88;;
40959;SDS011;27842;52.272;8.052;2022-07-29T09:20:30;6.47;;;1.77;;
40959;SDS011;27842;52.272;8.052;2022-07-29T09:23:17;8.43;;;1.90;;
40959;SDS011;27842;52.272;8.052;2022-07-29T09:25:43;5.93;;;1.60;;
40959;SDS011;27842;52.272;8.052;2022-07-29T09:28:18;9.40;;;1.98;;
40959;SDS011;27842;52.272;8.052;2022-07-29T09:30:58;12.38;;;1.90;;
40959;SDS011;27842;52.272;8.052;2022-07-29T09:33:32;9.68;;;1.83;;
40959;SDS011;27842;52.272;8.052;2022-07-29T09:36:09;4.95;;;1.63;;
40959;SDS011;27842;52.272;8.052;2022-07-29T09:38:36;10.23;;;2.13;;
40959;SDS011;27842;52.272;8.052;2022-07-29T09:41:03;9.95;;;1.88;;
40959;SDS011;27842;52.272;8.052;2022-07-29T09:43:29;4.78;;;1.33;;
40959;SDS011;27842;52.272;8.052;2022-07-29T09:46:14;9.75;;;2.33;;
40959;SDS011;27842;52.272;8.052;2022-07-29T09:48:40;9.80;;;2.03;;
40959;SDS011;27842;52.272;8.052;2022-07-29T09:51:15;7.50;;;1.80;;
40959;SDS011;27842;52.272;8.052;2022-07-29T09:53:47;6.97;;;1.95;;
40959;SDS011;27842;52.272;8.052;2022-07-29T09:56:15;6.57;;;1.63;;
40959;SDS011;27842;52.272;8.052;2022-07-29T09:58:40;7.43;;;1.85;;
40959;SDS011;27842;52.272;8.052;2022-07-29T10:01:06;11.20;;;1.60;;
40959;SDS011;27842;52.272;8.052;2022-07-29T10:03:32;7.07;;;1.95;;
40959;SDS011;27842;52.272;8.052;2022-07-29T10:06:15;6.93;;;1.70;;
40959;SDS011;27842;52.272;8.052;2022-07-29T10:08:51;12.40;;;2.72;;
40959;SDS011;27842;52.272;8.052;2022-07-29T10:11:20;10.60;;;2.28;;
40959;SDS011;27842;52.272;8.052;2022-07-29T10:13:46;12.60;;;2.15;;
40959;SDS011;27842;52.272;8.052;2022-07-29T10:16:29;7.45;;;1.85;;
40959;SDS011;27842;52.272;8.052;2022-07-29T10:19:03;7.78;;;1.70;;
40959;SDS011;27842;52.272;8.052;2022-07-29T10:21:32;8.43;;;1.80;;
40959;SDS011;27842;52.272;8.052;2022-07-29T10:24:01;15.20;;;2.00;;
40959;SDS011;27842;52.272;8.052;2022-07-29T10:32:16;5.07;;;1.58;;
40959;SDS011;27842;52.272;8.052;2022-07-29T10:43:19;7.75;;;1.77;;
40959;SDS011;27842;52.272;8.052;2022-07-29T10:46:02;9.75;;;1.90;;
40959;SDS011;27842;52.272;8.052;2022-07-29T10:48:29;7.82;;;1.75;;
40959;SDS011;27842;52.272;8.052;2022-07-29T10:50:59;12.77;;;2.33;;
40959;SDS011;27842;52.272;8.052;2022-07-29T10:56:31;12.48;;;2.22;;
40959;SDS011;27842;52.272;8.052;2022-07-29T11:01:56;5.95;;;1.80;;
40959;SDS011;27842;52.272;8.052;2022-07-29T11:07:12;6.80;;;2.22;;
40959;SDS011;27842;52.272;8.052;2022-07-29T11:09:43;7.55;;;2.20;;
40959;SDS011;27842;52.272;8.052;2022-07-29T11:15:07;8.48;;;2.00;;
40959;SDS011;27842;52.272;8.052;2022-07-29T11:26:37;12.55;;;2.13;;
40959;SDS011;27842;52.272;8.052;2022-07-29T11:31:46;10.68;;;2.35;;
40959;SDS011;27842;52.272;8.052;2022-07-29T11:34:32;11.82;;;2.30;;
40959;SDS011;27842;52.272;8.052;2022-07-29T11:47:54;8.95;;;2.10;;
40959;SDS011;27842;52.272;8.052;2022-07-29T11:50:32;9.18;;;2.22;;
40959;SDS011;27842;52.272;8.052;2022-07-29T11:52:59;10.98;;;2.05;;
40959;SDS011;27842;52.272;8.052;2022-07-29T11:55:26;12.90;;;1.85;;
40959;SDS011;27842;52.272;8.052;2022-07-29T11:58:01;7.82;;;2.40;;
40959;SDS011;27842;52.272;8.052;2022-07-29T12:00:38;10.63;;;2.10;;
40959;SDS011;27842;52.272;8.052;2022-07-29T12:03:11;9.37;;;2.33;;
40959;SDS011;27842;52.272;8.052;2022-07-29T12:05:42;7.55;;;1.90;;
40959;SDS011;27842;52.272;8.052;2022-07-29T12:08:15;11.40;;;2.15;;
40959;SDS011;27842;52.272;8.052;2022-07-29T12:10:55;8.25;;;1.92;;
40959;SDS011;27842;52.272;8.052;2022-07-29T12:13:24;7.63;;;1.95;;
40959;SDS011;27842;52.272;8.052;2022-07-29T12:18:37;11.27;;;1.95;;
40959;SDS011;27842;52.272;8.052;2022-07-29T12:21:19;11.85;;;2.45;;
40959;SDS011;27842;52.272;8.052;2022-07-29T12:23:51;9.18;;;2.53;;
40959;SDS011;27842;52.272;8.052;2022-07-29T12:26:50;7.13;;;1.90;;
40959;SDS011;27842;52.272;8.052;2022-07-29T12:30:17;11.35;;;2.05;;
40959;SDS011;27842;52.272;8.052;2022-07-29T12:32:46;8.85;;;2.20;;
40959;SDS011;27842;52.272;8.052;2022-07-29T12:38:21;7.97;;;1.92;;
40959;SDS011;27842;52.272;8.052;2022-07-29T12:40:49;7.97;;;2.05;;
40959;SDS011;27842;52.272;8.052;2022-07-29T12:43:47;9.15;;;2.10;;
40959;SDS011;27842;52.272;8.052;2022-07-29T12:46:26;8.13;;;2.22;;
40959;SDS011;27842;52.272;8.052;2022-07-29T12:49:02;12.93;;;2.25;;
40959;SDS011;27842;52.272;8.052;2022-07-29T12:54:14;10.13;;;2.15;;
40959;SDS011;27842;52.272;8.052;2022-07-29T12:56:43;9.95;;;2.60;;
40959;SDS011;27842;52.272;8.052;2022-07-29T13:02:43;10.13;;;2.10;;
40959;SDS011;27842;52.272;8.052;2022-07-29T13:07:52;12.63;;;2.13;;
40959;SDS011;27842;52.272;8.052;2022-07-29T13:11:00;11.40;;;2.45;;
40959;SDS011;27842;52.272;8.052;2022-07-29T13:13:34;9.68;;;2.03;;
40959;SDS011;27842;52.272;8.052;2022-07-29T13:16:25;9.50;;;2.17;;
40959;SDS011;27842;52.272;8.052;2022-07-29T13:19:02;7.00;;;2.20;;
40959;SDS011;27842;52.272;8.052;2022-07-29T13:21:39;10.45;;;2.75;;
40959;SDS011;27842;52.272;8.052;2022-07-29T13:27:00;9.63;;;2.58;;
40959;SDS011;27842;52.272;8.052;2022-07-29T13:29:34;8.77;;;2.33;;
40959;SDS011;27842;52.272;8.052;2022-07-29T13:35:09;9.25;;;2.20;;
40959;SDS011;27842;52.272;8.052;2022-07-29T13:38:01;10.27;;;2.30;;
40959;SDS011;27842;52.272;8.052;2022-07-29T13:40:27;13.10;;;2.35;;
40959;SDS011;27842;52.272;8.052;2022-07-29T13:42:55;9.48;;;2.35;;
40959;SDS011;27842;52.272;8.052;2022-07-29T13:45:23;11.32;;;2.60;;
40959;SDS011;27842;52.272;8.052;2022-07-29T13:47:49;8.70;;;2.22;;
40959;SDS011;27842;52.272;8.052;2022-07-29T13:50:14;10.40;;;2.50;;
40959;SDS011;27842;52.272;8.052;2022-07-29T13:52:40;10.38;;;2.80;;
40959;SDS011;27842;52.272;8.052;2022-07-29T13:55:09;10.82;;;2.42;;
40959;SDS011;27842;52.272;8.052;2022-07-29T13:57:56;13.15;;;2.50;;
40959;SDS011;27842;52.272;8.052;2022-07-29T14:00:35;8.35;;;2.60;;
40959;SDS011;27842;52.272;8.052;2022-07-29T14:03:01;8.68;;;2.38;;
40959;SDS011;27842;52.272;8.052;2022-07-29T14:05:26;10.35;;;2.25;;
40959;SDS011;27842;52.272;8.052;2022-07-29T14:07:58;13.90;;;2.70;;
40959;SDS011;27842;52.272;8.052;2022-07-29T14:10:23;8.00;;;2.67;;
40959;SDS011;27842;52.272;8.052;2022-07-29T14:12:58;11.68;;;2.65;;
40959;SDS011;27842;52.272;8.052;2022-07-29T14:15:30;9.40;;;2.10;;
40959;SDS011;27842;52.272;8.052;2022-07-29T14:17:58;11.38;;;2.97;;
40959;SDS011;27842;52.272;8.052;2022-07-29T14:20:24;13.43;;;2.78;;
40959;SDS011;27842;52.272;8.052;2022-07-29T14:23:01;8.88;;;2.40;;
40959;SDS011;27842;52.272;8.052;2022-07-29T14:25:29;10.02;;;2.97;;
40959;SDS011;27842;52.272;8.052;2022-07-29T14:28:12;11.77;;;2.50;;
40959;SDS011;27842;52.272;8.052;2022-07-29T14:33:14;9.20;;;2.33;;
40959;SDS011;27842;52.272;8.052;2022-07-29T14:35:42;9.73;;;2.30;;
40959;SDS011;27842;52.272;8.052;2022-07-29T14:38:18;7.85;;;2.28;;
40959;SDS011;27842;52.272;8.052;2022-07-29T14:40:50;8.65;;;2.65;;
40959;SDS011;27842;52.272;8.052;2022-07-29T14:43:16;10.88;;;2.40;;
40959;SDS011;27842;52.272;8.052;2022-07-29T14:45:41;11.98;;;2.53;;
40959;SDS011;27842;52.272;8.052;2022-07-29T14:48:07;12.40;;;2.70;;
40959;SDS011;27842;52.272;8.052;2022-07-29T14:50:36;6.80;;;2.20;;
40959;SDS011;27842;52.272;8.052;2022-07-29T14:53:05;12.07;;;2.78;;
40959;SDS011;27842;52.272;8.052;2022-07-29T14:55:30;9.45;;;2.33;;
40959;SDS011;27842;52.272;8.052;2022-07-29T14:57:56;12.02;;;2.30;;
40959;SDS011;27842;52.272;8.052;2022-07-29T15:00:22;9.05;;;2.40;;
40959;SDS011;27842;52.272;8.052;2022-07-29T15:02:47;9.27;;;2.65;;
40959;SDS011;27842;52.272;8.052;2022-07-29T15:05:13;8.20;;;2.30;;
40959;SDS011;27842;52.272;8.052;2022-07-29T15:07:39;9.13;;;2.35;;
40959;SDS011;27842;52.272;8.052;2022-07-29T15:10:04;8.82;;;2.20;;
40959;SDS011;27842;52.272;8.052;2022-07-29T15:12:31;13.57;;;2.38;;
40959;SDS011;27842;52.272;8.052;2022-07-29T15:15:04;11.57;;;2.75;;
40959;SDS011;27842;52.272;8.052;2022-07-29T15:17:44;11.10;;;2.78;;
40959;SDS011;27842;52.272;8.052;2022-07-29T15:20:13;11.02;;;2.47;;
40959;SDS011;27842;52.272;8.052;2022-07-29T15:25:26;6.13;;;2.40;;
40959;SDS011;27842;52.272;8.052;2022-07-29T15:27:52;8.32;;;2.35;;
40959;SDS011;27842;52.272;8.052;2022-07-29T15:30:17;13.73;;;2.53;;
40959;SDS011;27842;52.272;8.052;2022-07-29T15:32:43;10.30;;;2.47;;
40959;SDS011;27842;52.272;8.052;2022-07-29T15:35:09;6.47;;;2.42;;
40959;SDS011;27842;52.272;8.052;2022-07-29T15:37:35;13.52;;;3.03;;
40959;SDS011;27842;52.272;8.052;2022-07-29T15:40:02;10.80;;;2.65;;
40959;SDS011;27842;52.272;8.052;2022-07-29T15:42:29;9.77;;;2.83;;
40959;SDS011;27842;52.272;8.052;2022-07-29T15:44:54;16.38;;;2.50;;
40959;SDS011;27842;52.272;8.052;2022-07-29T15:47:20;8.23;;;2.60;;
40959;SDS011;27842;52.272;8.052;2022-07-29T15:49:46;14.68;;;2.92;;
40959;SDS011;27842;52.272;8.052;2022-07-29T15:52:12;11.45;;;2.63;;
40959;SDS011;27842;52.272;8.052;2022-07-29T15:54:38;10.07;;;2.25;;
40959;SDS011;27842;52.272;8.052;2022-07-29T15:57:13;11.23;;;2.35;;
40959;SDS011;27842;52.272;8.052;2022-07-29T15:59:39;10.27;;;2.45;;
40959;SDS011;27842;52.272;8.052;2022-07-29T16:02:05;11.73;;;2.65;;
40959;SDS011;27842;52.272;8.052;2022-07-29T16:04:31;9.35;;;2.65;;
40959;SDS011;27842;52.272;8.052;2022-07-29T16:06:56;9.02;;;2.40;;
40959;SDS011;27842;52.272;8.052;2022-07-29T16:09:22;12.77;;;2.72;;
40959;SDS011;27842;52.272;8.052;2022-07-29T16:11:48;10.40;;;2.50;;
40959;SDS011;27842;52.272;8.052;2022-07-29T16:14:17;10.77;;;2.35;;
40959;SDS011;27842;52.272;8.052;2022-07-29T16:16:43;11.98;;;2.38;;
40959;SDS011;27842;52.272;8.052;2022-07-29T16:19:09;11.57;;;3.75;;
40959;SDS011;27842;52.272;8.052;2022-07-29T16:21:35;8.80;;;2.50;;
40959;SDS011;27842;52.272;8.052;2022-07-29T16:24:02;12.20;;;2.53;;
40959;SDS011;27842;52.272;8.052;2022-07-29T16:26:28;13.23;;;2.72;;
40959;SDS011;27842;52.272;8.052;2022-07-29T16:28:54;9.02;;;2.60;;
40959;SDS011;27842;52.272;8.052;2022-07-29T16:31:20;6.97;;;1.85;;
40959;SDS011;27842;52.272;8.052;2022-07-29T16:33:50;8.20;;;2.10;;
40959;SDS011;27842;52.272;8.052;2022-07-29T16:36:16;7.82;;;2.30;;
40959;SDS011;27842;52.272;8.052;2022-07-29T16:38:42;7.68;;;2.05;;
40959;SDS011;27842;52.272;8.052;2022-07-29T16:41:08;12.05;;;2.45;;
40959;SDS011;27842;52.272;8.052;2022-07-29T16:43:41;7.85;;;2.08;;
40959;SDS011;27842;52.272;8.052;2022-07-29T16:46:12;14.73;;;2.90;;
40959;SDS011;27842;52.272;8.052;2022-07-29T16:48:38;11.77;;;2.20;;